sensor_id;sensor_type;location;lat;lon;timestamp;P1;durP1;ratioP1;P2;durP2;ratioP2
47289;SDS011;33197;52.524;13.444;2022-09-21T00:01:09;3.58;;;1.77;;
47289;SDS011;33197;52.524;13.444;2022-09-21T00:03:41;2.22;;;1.50;;
47289;SDS011;33197;52.524;13.444;2022-09-21T00:06:13;3.28;;;1.92;;
47289;SDS011;33197;52.524;13.444;2022-09-21T00:08:41;3.00;;;1.63;;
47289;SDS011;33197;52.524;13.444;2022-09-21T00:11:12;3.78;;;1.58;;
47289;SDS011;33197;52.524;13.444;2022-09-21T00:13:40;2.78;;;1.77;;
47289;SDS011;33197;52.524;13.444;2022-09-21T00:16:10;2.28;;;1.58;;
47289;SDS011;33197;52.524;13.444;2022-09-21T00:18:37;3.33;;;1.42;;
47289;SDS011;33197;52.524;13.444;2022-09-21T00:21:08;5.25;;;1.60;;
47289;SDS011;33197;52.524;13.444;2022-09-21T00:23:36;3.97;;;1.63;;
47289;SDS011;33197;52.524;13.444;2022-09-21T00:28:32;2.10;;;1.35;;
47289;SDS011;33197;52.524;13.444;2022-09-21T00:31:00;3.20;;;1.70;;
47289;SDS011;33197;52.524;13.444;2022-09-21T00:33:28;3.38;;;1.70;;
47289;SDS011;33197;52.524;13.444;2022-09-21T00:36:00;3.03;;;1.63;;
47289;SDS011;33197;52.524;13.444;2022-09-21T00:38:29;2.70;;;1.50;;
47289;SDS011;33197;52.524;13.444;2022-09-21T00:40:56;3.53;;;1.80;;
47289;SDS011;33197;52.524;13.444;2022-09-21T00:43:23;2.67;;;1.52;;
47289;SDS011;33197;52.524;13.444;2022-09-21T00:45:53;4.90;;;2.13;;
47289;SDS011;33197;52.524;13.444;2022-09-21T00:48:26;4.50;;;1.43;;
47289;SDS011;33197;52.524;13.444;2022-09-21T00:50:55;2.90;;;1.52;;
47289;SDS011;33197;52.524;13.444;2022-09-21T00:53:24;5.75;;;1.65;;
47289;SDS011;33197;52.524;13.444;2022-09-21T00:55:54;4.20;;;1.83;;
47289;SDS011;33197;52.524;13.444;2022-09-21T00:58:26;4.78;;;1.90;;
47289;SDS011;33197;52.524;13.444;2022-09-21T01:00:57;2.53;;;1.40;;
47289;SDS011;33197;52.524;13.444;2022-09-21T01:03:26;3.22;;;1.40;;
47289;SDS011;33197;52.524;13.444;2022-09-21T01:05:55;2.67;;;1.63;;
47289;SDS011;33197;52.524;13.444;2022-09-21T01:08:23;5.50;;;2.17;;
47289;SDS011;33197;52.524;13.444;2022-09-21T01:16:52;3.33;;;1.80;;
47289;SDS011;33197;52.524;13.444;2022-09-21T01:27:55;2.92;;;1.95;;
47289;SDS011;33197;52.524;13.444;2022-09-21T01:30:43;4.70;;;1.60;;
47289;SDS011;33197;52.524;13.444;2022-09-21T01:33:22;3.05;;;1.88;;
47289;SDS011;33197;52.524;13.444;2022-09-21T01:35:56;6.65;;;1.63;;
47289;SDS011;33197;52.524;13.444;2022-09-21T01:38:28;3.30;;;1.77;;
47289;SDS011;33197;52.524;13.444;2022-09-21T01:40:59;2.25;;;1.38;;
47289;SDS011;33197;52.524;13.444;2022-09-21T01:43:33;3.97;;;1.83;;
47289;SDS011;33197;52.524;13.444;2022-09-21T01:46:02;3.10;;;1.40;;
47289;SDS011;33197;52.524;13.444;2022-09-21T01:48:32;3.08;;;1.73;;
47289;SDS011;33197;52.524;13.444;2022-09-21T01:51:02;6.07;;;1.80;;
47289;SDS011;33197;52.524;13.444;2022-09-21T01:53:32;2.72;;;1.52;;
47289;SDS011;33197;52.524;13.444;2022-09-21T01:56:24;2.65;;;1.48;;
47289;SDS011;33197;52.524;13.444;2022-09-21T01:58:54;3.58;;;1.75;;
47289;SDS011;33197;52.524;13.444;2022-09-21T02:03:56;3.42;;;1.67;;
47289;SDS011;33197;52.524;13.444;2022-09-21T02:06:25;3.85;;;1.73;;
47289;SDS011;33197;52.524;13.444;2022-09-21T02:08:54;6.18;;;2.10;;
47289;SDS011;33197;52.524;13.444;2022-09-21T02:11:21;3.30;;;1.83;;
47289;SDS011;33197;52.524;13.444;2022-09-21T02:13:50;3.05;;;1.70;;
47289;SDS011;33197;52.524;13.444;2022-09-21T02:30:15;8.40;;;3.15;;
47289;SDS011;33197;52.524;13.444;2022-09-21T02:32:57;6.28;;;2.60;;
47289;SDS011;33197;52.524;13.444;2022-09-21T02:40:50;5.38;;;1.92;;
47289;SDS011;33197;52.524;13.444;2022-09-21T02:43:24;6.85;;;2.28;;
47289;SDS011;33197;52.524;13.444;2022-09-21T02:45:55;4.90;;;2.03;;
47289;SDS011;33197;52.524;13.444;2022-09-21T02:48:28;3.78;;;1.95;;
47289;SDS011;33197;52.524;13.444;2022-09-21T02:51:02;4.82;;;1.85;;
47289;SDS011;33197;52.524;13.444;2022-09-21T02:53:35;5.40;;;2.13;;
47289;SDS011;33197;52.524;13.444;2022-09-21T02:56:04;4.68;;;2.50;;
47289;SDS011;33197;52.524;13.444;2022-09-21T02:58:39;3.88;;;2.00;;
47289;SDS011;33197;52.524;13.444;2022-09-21T03:01:10;3.97;;;2.00;;
47289;SDS011;33197;52.524;13.444;2022-09-21T03:03:38;8.70;;;2.67;;
47289;SDS011;33197;52.524;13.444;2022-09-21T03:06:05;4.88;;;2.20;;
47289;SDS011;33197;52.524;13.444;2022-09-21T03:08:32;7.55;;;3.30;;
47289;SDS011;33197;52.524;13.444;2022-09-21T03:10:59;6.80;;;3.15;;
47289;SDS011;33197;52.524;13.444;2022-09-21T03:13:26;5.78;;;3.00;;
47289;SDS011;33197;52.524;13.444;2022-09-21T03:16:03;8.07;;;3.40;;
47289;SDS011;33197;52.524;13.444;2022-09-21T03:18:33;5.97;;;2.63;;
47289;SDS011;33197;52.524;13.444;2022-09-21T03:21:00;8.07;;;2.97;;
47289;SDS011;33197;52.524;13.444;2022-09-21T03:23:29;6.03;;;3.03;;
47289;SDS011;33197;52.524;13.444;2022-09-21T03:25:56;6.15;;;3.42;;
47289;SDS011;33197;52.524;13.444;2022-09-21T03:28:23;6.68;;;3.25;;
47289;SDS011;33197;52.524;13.444;2022-09-21T03:30:50;3.88;;;2.40;;
47289;SDS011;33197;52.524;13.444;2022-09-21T03:33:18;6.45;;;2.95;;
47289;SDS011;33197;52.524;13.444;2022-09-21T03:35:49;5.18;;;2.72;;
47289;SDS011;33197;52.524;13.444;2022-09-21T03:38:17;15.93;;;3.95;;
47289;SDS011;33197;52.524;13.444;2022-09-21T03:40:45;5.03;;;2.78;;
47289;SDS011;33197;52.524;13.444;2022-09-21T03:43:15;5.60;;;2.60;;
47289;SDS011;33197;52.524;13.444;2022-09-21T03:45:43;5.10;;;2.38;;
47289;SDS011;33197;52.524;13.444;2022-09-21T03:48:10;7.45;;;2.78;;
47289;SDS011;33197;52.524;13.444;2022-09-21T03:50:41;4.28;;;2.33;;
47289;SDS011;33197;52.524;13.444;2022-09-21T03:53:08;3.42;;;2.20;;
47289;SDS011;33197;52.524;13.444;2022-09-21T03:55:36;4.22;;;2.40;;
47289;SDS011;33197;52.524;13.444;2022-09-21T03:58:04;5.30;;;2.17;;
47289;SDS011;33197;52.524;13.444;2022-09-21T04:00:31;6.05;;;2.70;;
47289;SDS011;33197;52.524;13.444;2022-09-21T04:02:58;3.70;;;2.15;;
47289;SDS011;33197;52.524;13.444;2022-09-21T04:05:26;4.47;;;2.85;;
47289;SDS011;33197;52.524;13.444;2022-09-21T04:07:53;4.50;;;1.98;;
47289;SDS011;33197;52.524;13.444;2022-09-21T04:10:22;4.03;;;2.10;;
47289;SDS011;33197;52.524;13.444;2022-09-21T04:12:55;4.85;;;1.85;;
47289;SDS011;33197;52.524;13.444;2022-09-21T04:15:23;6.53;;;2.35;;
47289;SDS011;33197;52.524;13.444;2022-09-21T04:17:50;3.50;;;2.33;;
47289;SDS011;33197;52.524;13.444;2022-09-21T04:20:18;4.07;;;1.90;;
47289;SDS011;33197;52.524;13.444;2022-09-21T04:22:46;4.22;;;2.10;;
47289;SDS011;33197;52.524;13.444;2022-09-21T04:25:13;5.78;;;2.17;;
47289;SDS011;33197;52.524;13.444;2022-09-21T04:27:41;5.47;;;2.03;;
47289;SDS011;33197;52.524;13.444;2022-09-21T04:30:10;3.75;;;1.80;;
47289;SDS011;33197;52.524;13.444;2022-09-21T04:32:38;3.03;;;1.90;;
47289;SDS011;33197;52.524;13.444;2022-09-21T04:35:06;3.90;;;1.80;;
47289;SDS011;33197;52.524;13.444;2022-09-21T04:37:33;4.00;;;1.92;;
47289;SDS011;33197;52.524;13.444;2022-09-21T04:40:00;5.13;;;2.00;;
47289;SDS011;33197;52.524;13.444;2022-09-21T04:42:28;2.50;;;1.77;;
47289;SDS011;33197;52.524;13.444;2022-09-21T04:44:55;4.22;;;1.85;;
47289;SDS011;33197;52.524;13.444;2022-09-21T04:47:22;3.85;;;2.13;;
47289;SDS011;33197;52.524;13.444;2022-09-21T04:49:49;4.00;;;2.50;;
47289;SDS011;33197;52.524;13.444;2022-09-21T04:52:18;2.70;;;1.90;;
47289;SDS011;33197;52.524;13.444;2022-09-21T04:54:45;5.65;;;2.90;;
47289;SDS011;33197;52.524;13.444;2022-09-21T04:57:13;3.92;;;2.38;;
47289;SDS011;33197;52.524;13.444;2022-09-21T04:59:40;4.90;;;2.50;;
47289;SDS011;33197;52.524;13.444;2022-09-21T05:02:08;6.05;;;2.55;;
47289;SDS011;33197;52.524;13.444;2022-09-21T05:04:35;6.82;;;2.72;;
47289;SDS011;33197;52.524;13.444;2022-09-21T05:07:03;7.13;;;2.58;;
47289;SDS011;33197;52.524;13.444;2022-09-21T05:09:30;4.82;;;2.38;;
47289;SDS011;33197;52.524;13.444;2022-09-21T05:12:15;5.65;;;2.17;;
47289;SDS011;33197;52.524;13.444;2022-09-21T05:14:43;4.53;;;2.70;;
47289;SDS011;33197;52.524;13.444;2022-09-21T05:17:11;7.82;;;2.60;;
47289;SDS011;33197;52.524;13.444;2022-09-21T05:19:38;7.75;;;3.00;;
47289;SDS011;33197;52.524;13.444;2022-09-21T05:22:06;5.28;;;2.60;;
47289;SDS011;33197;52.524;13.444;2022-09-21T05:24:33;9.15;;;2.85;;
47289;SDS011;33197;52.524;13.444;2022-09-21T05:27:00;3.65;;;2.45;;
47289;SDS011;33197;52.524;13.444;2022-09-21T05:29:27;5.30;;;2.40;;
47289;SDS011;33197;52.524;13.444;2022-09-21T05:32:42;5.07;;;2.85;;
47289;SDS011;33197;52.524;13.444;2022-09-21T05:40:18;3.88;;;2.40;;
47289;SDS011;33197;52.524;13.444;2022-09-21T05:42:46;5.70;;;2.13;;
47289;SDS011;33197;52.524;13.444;2022-09-21T05:45:16;8.15;;;2.85;;
47289;SDS011;33197;52.524;13.444;2022-09-21T05:56:20;10.55;;;3.45;;
47289;SDS011;33197;52.524;13.444;2022-09-21T06:01:54;5.18;;;2.90;;
47289;SDS011;33197;52.524;13.444;2022-09-21T06:04:41;7.70;;;3.28;;
47289;SDS011;33197;52.524;13.444;2022-09-21T06:07:09;5.28;;;2.63;;
47289;SDS011;33197;52.524;13.444;2022-09-21T06:09:36;11.13;;;3.60;;
47289;SDS011;33197;52.524;13.444;2022-09-21T06:12:08;6.75;;;3.20;;
47289;SDS011;33197;52.524;13.444;2022-09-21T06:14:37;14.07;;;3.40;;
47289;SDS011;33197;52.524;13.444;2022-09-21T06:17:04;14.00;;;4.72;;
47289;SDS011;33197;52.524;13.444;2022-09-21T06:19:31;9.68;;;3.65;;
47289;SDS011;33197;52.524;13.444;2022-09-21T06:21:58;9.65;;;3.53;;
47289;SDS011;33197;52.524;13.444;2022-09-21T06:24:25;8.32;;;3.45;;
47289;SDS011;33197;52.524;13.444;2022-09-21T06:26:53;9.98;;;3.10;;
47289;SDS011;33197;52.524;13.444;2022-09-21T06:29:20;7.40;;;3.35;;
47289;SDS011;33197;52.524;13.444;2022-09-21T06:31:49;12.25;;;3.83;;
47289;SDS011;33197;52.524;13.444;2022-09-21T06:34:17;9.73;;;3.25;;
47289;SDS011;33197;52.524;13.444;2022-09-21T06:36:44;6.75;;;3.67;;
47289;SDS011;33197;52.524;13.444;2022-09-21T06:39:11;6.85;;;3.55;;
47289;SDS011;33197;52.524;13.444;2022-09-21T06:41:38;4.78;;;2.65;;
47289;SDS011;33197;52.524;13.444;2022-09-21T06:44:06;15.93;;;5.47;;
47289;SDS011;33197;52.524;13.444;2022-09-21T06:46:33;7.90;;;3.67;;
47289;SDS011;33197;52.524;13.444;2022-09-21T06:49:00;9.70;;;4.40;;
47289;SDS011;33197;52.524;13.444;2022-09-21T06:51:27;12.82;;;4.75;;
47289;SDS011;33197;52.524;13.444;2022-09-21T06:53:55;16.05;;;4.18;;
47289;SDS011;33197;52.524;13.444;2022-09-21T06:56:23;13.80;;;4.80;;
47289;SDS011;33197;52.524;13.444;2022-09-21T06:58:50;9.00;;;4.15;;
47289;SDS011;33197;52.524;13.444;2022-09-21T07:01:18;14.02;;;4.95;;
47289;SDS011;33197;52.524;13.444;2022-09-21T07:03:48;13.30;;;5.40;;
47289;SDS011;33197;52.524;13.444;2022-09-21T07:06:17;13.07;;;5.18;;
47289;SDS011;33197;52.524;13.444;2022-09-21T07:08:45;14.98;;;6.03;;
47289;SDS011;33197;52.524;13.444;2022-09-21T07:11:32;9.50;;;5.03;;
47289;SDS011;33197;52.524;13.444;2022-09-21T07:14:00;8.35;;;4.40;;
47289;SDS011;33197;52.524;13.444;2022-09-21T07:16:27;10.43;;;5.03;;
47289;SDS011;33197;52.524;13.444;2022-09-21T07:18:54;10.52;;;5.57;;
47289;SDS011;33197;52.524;13.444;2022-09-21T07:21:22;13.23;;;5.40;;
47289;SDS011;33197;52.524;13.444;2022-09-21T07:23:49;8.75;;;4.75;;
47289;SDS011;33197;52.524;13.444;2022-09-21T07:26:16;7.07;;;4.30;;
47289;SDS011;33197;52.524;13.444;2022-09-21T07:28:44;9.43;;;5.10;;
47289;SDS011;33197;52.524;13.444;2022-09-21T07:31:12;13.45;;;5.47;;
47289;SDS011;33197;52.524;13.444;2022-09-21T07:33:40;9.23;;;5.13;;
47289;SDS011;33197;52.524;13.444;2022-09-21T07:36:08;6.72;;;4.72;;
47289;SDS011;33197;52.524;13.444;2022-09-21T07:38:36;9.95;;;5.10;;
47289;SDS011;33197;52.524;13.444;2022-09-21T07:41:06;9.00;;;4.97;;
47289;SDS011;33197;52.524;13.444;2022-09-21T07:43:33;11.20;;;4.88;;
47289;SDS011;33197;52.524;13.444;2022-09-21T07:46:00;13.40;;;5.65;;
47289;SDS011;33197;52.524;13.444;2022-09-21T07:48:28;8.93;;;4.70;;
47289;SDS011;33197;52.524;13.444;2022-09-21T07:51:00;8.93;;;5.22;;
47289;SDS011;33197;52.524;13.444;2022-09-21T07:53:34;14.90;;;6.18;;
47289;SDS011;33197;52.524;13.444;2022-09-21T07:56:05;10.00;;;5.32;;
47289;SDS011;33197;52.524;13.444;2022-09-21T07:58:34;9.52;;;4.85;;
47289;SDS011;33197;52.524;13.444;2022-09-21T08:01:21;12.98;;;4.97;;
47289;SDS011;33197;52.524;13.444;2022-09-21T08:03:49;9.88;;;4.40;;
47289;SDS011;33197;52.524;13.444;2022-09-21T08:06:18;6.85;;;4.22;;
47289;SDS011;33197;52.524;13.444;2022-09-21T08:08:45;12.35;;;4.88;;
47289;SDS011;33197;52.524;13.444;2022-09-21T08:11:22;11.52;;;4.57;;
47289;SDS011;33197;52.524;13.444;2022-09-21T08:13:53;9.35;;;4.75;;
47289;SDS011;33197;52.524;13.444;2022-09-21T08:16:22;11.68;;;5.10;;
47289;SDS011;33197;52.524;13.444;2022-09-21T08:18:49;14.38;;;4.90;;
47289;SDS011;33197;52.524;13.444;2022-09-21T08:21:17;8.02;;;4.07;;
47289;SDS011;33197;52.524;13.444;2022-09-21T08:23:46;9.82;;;4.57;;
47289;SDS011;33197;52.524;13.444;2022-09-21T08:26:16;9.70;;;4.35;;
47289;SDS011;33197;52.524;13.444;2022-09-21T08:28:48;7.75;;;4.22;;
47289;SDS011;33197;52.524;13.444;2022-09-21T08:31:17;7.93;;;4.07;;
47289;SDS011;33197;52.524;13.444;2022-09-21T08:33:46;8.27;;;3.92;;
47289;SDS011;33197;52.524;13.444;2022-09-21T08:36:14;11.10;;;3.85;;
47289;SDS011;33197;52.524;13.444;2022-09-21T08:38:41;7.22;;;3.78;;
47289;SDS011;33197;52.524;13.444;2022-09-21T08:41:16;9.85;;;3.85;;
47289;SDS011;33197;52.524;13.444;2022-09-21T08:46:22;12.38;;;4.05;;
47289;SDS011;33197;52.524;13.444;2022-09-21T08:51:23;9.13;;;4.03;;
47289;SDS011;33197;52.524;13.444;2022-09-21T08:53:53;13.48;;;4.18;;
47289;SDS011;33197;52.524;13.444;2022-09-21T08:56:23;7.13;;;3.85;;
47289;SDS011;33197;52.524;13.444;2022-09-21T08:59:12;7.75;;;3.70;;
47289;SDS011;33197;52.524;13.444;2022-09-21T09:04:37;10.48;;;4.15;;
47289;SDS011;33197;52.524;13.444;2022-09-21T09:10:16;9.73;;;3.63;;
47289;SDS011;33197;52.524;13.444;2022-09-21T09:12:55;7.97;;;3.40;;
47289;SDS011;33197;52.524;13.444;2022-09-21T09:15:37;9.98;;;3.33;;
47289;SDS011;33197;52.524;13.444;2022-09-21T09:18:31;7.95;;;3.55;;
47289;SDS011;33197;52.524;13.444;2022-09-21T09:21:00;6.25;;;3.05;;
47289;SDS011;33197;52.524;13.444;2022-09-21T09:23:31;8.02;;;3.35;;
47289;SDS011;33197;52.524;13.444;2022-09-21T09:26:02;9.45;;;4.25;;
47289;SDS011;33197;52.524;13.444;2022-09-21T09:28:33;7.10;;;3.30;;
47289;SDS011;33197;52.524;13.444;2022-09-21T09:31:13;8.57;;;4.00;;
47289;SDS011;33197;52.524;13.444;2022-09-21T09:33:47;9.75;;;3.78;;
47289;SDS011;33197;52.524;13.444;2022-09-21T09:36:18;6.70;;;3.03;;
47289;SDS011;33197;52.524;13.444;2022-09-21T09:39:12;8.65;;;3.40;;
47289;SDS011;33197;52.524;13.444;2022-09-21T09:50:15;4.10;;;2.40;;
47289;SDS011;33197;52.524;13.444;2022-09-21T09:52:48;5.07;;;2.13;;
47289;SDS011;33197;52.524;13.444;2022-09-21T09:55:24;6.90;;;2.53;;
47289;SDS011;33197;52.524;13.444;2022-09-21T09:57:55;6.10;;;2.50;;
47289;SDS011;33197;52.524;13.444;2022-09-21T10:00:24;6.05;;;2.05;;
47289;SDS011;33197;52.524;13.444;2022-09-21T10:02:52;5.25;;;2.88;;
47289;SDS011;33197;52.524;13.444;2022-09-21T10:05:30;4.25;;;2.30;;
47289;SDS011;33197;52.524;13.444;2022-09-21T10:07:58;4.80;;;2.35;;
47289;SDS011;33197;52.524;13.444;2022-09-21T10:10:33;5.90;;;2.28;;
47289;SDS011;33197;52.524;13.444;2022-09-21T10:13:04;5.45;;;2.10;;
47289;SDS011;33197;52.524;13.444;2022-09-21T10:15:41;2.92;;;1.77;;
47289;SDS011;33197;52.524;13.444;2022-09-21T10:23:22;3.53;;;1.92;;
47289;SDS011;33197;52.524;13.444;2022-09-21T10:25:57;6.65;;;1.75;;
47289;SDS011;33197;52.524;13.444;2022-09-21T10:28:27;4.60;;;1.67;;
47289;SDS011;33197;52.524;13.444;2022-09-21T10:34:13;3.03;;;1.25;;
47289;SDS011;33197;52.524;13.444;2022-09-21T10:36:41;3.13;;;1.35;;
47289;SDS011;33197;52.524;13.444;2022-09-21T10:42:13;7.68;;;1.25;;
47289;SDS011;33197;52.524;13.444;2022-09-21T10:49:55;4.25;;;1.20;;
47289;SDS011;33197;52.524;13.444;2022-09-21T10:52:24;2.95;;;1.00;;
47289;SDS011;33197;52.524;13.444;2022-09-21T10:55:02;4.65;;;1.38;;
47289;SDS011;33197;52.524;13.444;2022-09-21T10:57:29;3.25;;;1.30;;
47289;SDS011;33197;52.524;13.444;2022-09-21T11:00:10;6.47;;;1.52;;
47289;SDS011;33197;52.524;13.444;2022-09-21T11:02:44;9.57;;;2.33;;
47289;SDS011;33197;52.524;13.444;2022-09-21T11:05:24;10.65;;;2.25;;
47289;SDS011;33197;52.524;13.444;2022-09-21T11:08:14;3.97;;;1.80;;
47289;SDS011;33197;52.524;13.444;2022-09-21T11:10:45;4.03;;;1.52;;
47289;SDS011;33197;52.524;13.444;2022-09-21T11:13:20;4.93;;;1.13;;
47289;SDS011;33197;52.524;13.444;2022-09-21T11:25:39;1.17;;;0.57;;
47289;SDS011;33197;52.524;13.444;2022-09-21T11:28:16;4.55;;;1.10;;
47289;SDS011;33197;52.524;13.444;2022-09-21T11:30:53;2.05;;;0.95;;
47289;SDS011;33197;52.524;13.444;2022-09-21T11:36:54;4.28;;;0.77;;
47289;SDS011;33197;52.524;13.444;2022-09-21T11:58:43;1.90;;;0.80;;
47289;SDS011;33197;52.524;13.444;2022-09-21T12:04:30;4.10;;;1.30;;
47289;SDS011;33197;52.524;13.444;2022-09-21T12:07:04;1.48;;;0.80;;
47289;SDS011;33197;52.524;13.444;2022-09-21T12:09:43;1.33;;;0.88;;
47289;SDS011;33197;52.524;13.444;2022-09-21T12:12:24;2.60;;;0.95;;
47289;SDS011;33197;52.524;13.444;2022-09-21T12:23:01;3.53;;;1.40;;
47289;SDS011;33197;52.524;13.444;2022-09-21T12:25:33;3.57;;;1.10;;
47289;SDS011;33197;52.524;13.444;2022-09-21T12:30:38;1.92;;;0.88;;
47289;SDS011;33197;52.524;13.444;2022-09-21T12:36:21;2.00;;;0.80;;
47289;SDS011;33197;52.524;13.444;2022-09-21T12:41:58;4.63;;;0.93;;
47289;SDS011;33197;52.524;13.444;2022-09-21T12:44:31;1.45;;;0.70;;
47289;SDS011;33197;52.524;13.444;2022-09-21T12:50:36;4.80;;;1.13;;
47289;SDS011;33197;52.524;13.444;2022-09-21T12:53:14;4.10;;;1.63;;
47289;SDS011;33197;52.524;13.444;2022-09-21T12:55:54;1.50;;;0.82;;
47289;SDS011;33197;52.524;13.444;2022-09-21T12:58:32;2.50;;;0.90;;
47289;SDS011;33197;52.524;13.444;2022-09-21T13:03:48;1.85;;;0.85;;
47289;SDS011;33197;52.524;13.444;2022-09-21T13:09:00;4.57;;;1.02;;
47289;SDS011;33197;52.524;13.444;2022-09-21T13:11:31;1.55;;;0.63;;
47289;SDS011;33197;52.524;13.444;2022-09-21T13:13:59;2.03;;;0.82;;
47289;SDS011;33197;52.524;13.444;2022-09-21T13:16:29;2.05;;;0.82;;
47289;SDS011;33197;52.524;13.444;2022-09-21T13:19:01;0.50;;;0.50;;
47289;SDS011;33197;52.524;13.444;2022-09-21T13:25:02;1.52;;;0.60;;
47289;SDS011;33197;52.524;13.444;2022-09-21T13:54:30;1.27;;;0.63;;
47289;SDS011;33197;52.524;13.444;2022-09-21T13:57:04;2.05;;;0.60;;
47289;SDS011;33197;52.524;13.444;2022-09-21T13:59:40;3.70;;;0.60;;
47289;SDS011;33197;52.524;13.444;2022-09-21T14:02:23;3.28;;;0.93;;
47289;SDS011;33197;52.524;13.444;2022-09-21T14:05:02;1.33;;;0.60;;
47289;SDS011;33197;52.524;13.444;2022-09-21T14:07:33;2.22;;;0.85;;
47289;SDS011;33197;52.524;13.444;2022-09-21T14:10:01;1.58;;;0.90;;
47289;SDS011;33197;52.524;13.444;2022-09-21T14:12:41;1.88;;;0.63;;
47289;SDS011;33197;52.524;13.444;2022-09-21T14:17:45;0.88;;;0.50;;
47289;SDS011;33197;52.524;13.444;2022-09-21T14:23:34;1.05;;;0.50;;
47289;SDS011;33197;52.524;13.444;2022-09-21T14:29:11;0.70;;;0.40;;
47289;SDS011;33197;52.524;13.444;2022-09-21T14:31:43;1.73;;;0.80;;
47289;SDS011;33197;52.524;13.444;2022-09-21T14:34:11;2.10;;;0.50;;
47289;SDS011;33197;52.524;13.444;2022-09-21T14:36:44;2.05;;;0.85;;
47289;SDS011;33197;52.524;13.444;2022-09-21T14:39:18;1.13;;;0.57;;
47289;SDS011;33197;52.524;13.444;2022-09-21T14:41:55;2.00;;;0.85;;
47289;SDS011;33197;52.524;13.444;2022-09-21T14:44:26;0.90;;;0.70;;
47289;SDS011;33197;52.524;13.444;2022-09-21T15:01:19;0.88;;;0.50;;
47289;SDS011;33197;52.524;13.444;2022-09-21T15:06:49;2.67;;;0.80;;
47289;SDS011;33197;52.524;13.444;2022-09-21T15:19:14;1.48;;;0.50;;
47289;SDS011;33197;52.524;13.444;2022-09-21T15:21:45;4.07;;;0.82;;
47289;SDS011;33197;52.524;13.444;2022-09-21T15:24:18;2.13;;;0.60;;
47289;SDS011;33197;52.524;13.444;2022-09-21T15:26:47;3.28;;;0.80;;
47289;SDS011;33197;52.524;13.444;2022-09-21T15:29:25;0.90;;;0.60;;
47289;SDS011;33197;52.524;13.444;2022-09-21T15:31:53;0.75;;;0.50;;
47289;SDS011;33197;52.524;13.444;2022-09-21T15:34:21;1.70;;;0.60;;
47289;SDS011;33197;52.524;13.444;2022-09-21T15:36:49;1.58;;;0.57;;
47289;SDS011;33197;52.524;13.444;2022-09-21T15:39:27;0.65;;;0.50;;
47289;SDS011;33197;52.524;13.444;2022-09-21T15:42:17;0.90;;;0.45;;
47289;SDS011;33197;52.524;13.444;2022-09-21T15:44:49;2.92;;;0.73;;
47289;SDS011;33197;52.524;13.444;2022-09-21T15:47:21;0.98;;;0.50;;
47289;SDS011;33197;52.524;13.444;2022-09-21T15:49:49;1.17;;;0.40;;
47289;SDS011;33197;52.524;13.444;2022-09-21T15:54:58;0.88;;;0.55;;
47289;SDS011;33197;52.524;13.444;2022-09-21T16:00:27;1.05;;;0.60;;
47289;SDS011;33197;52.524;13.444;2022-09-21T16:03:14;1.48;;;0.50;;
47289;SDS011;33197;52.524;13.444;2022-09-21T16:05:45;1.13;;;0.73;;
47289;SDS011;33197;52.524;13.444;2022-09-21T16:08:31;0.85;;;0.60;;
47289;SDS011;33197;52.524;13.444;2022-09-21T16:11:13;2.42;;;0.95;;
47289;SDS011;33197;52.524;13.444;2022-09-21T16:13:58;1.02;;;0.73;;
47289;SDS011;33197;52.524;13.444;2022-09-21T16:22:18;1.75;;;0.88;;
47289;SDS011;33197;52.524;13.444;2022-09-21T16:24:48;2.75;;;2.30;;
47289;SDS011;33197;52.524;13.444;2022-09-21T16:27:18;1.83;;;0.88;;
47289;SDS011;33197;52.524;13.444;2022-09-21T16:29:46;3.00;;;2.03;;
47289;SDS011;33197;52.524;13.444;2022-09-21T16:34:52;3.90;;;1.40;;
47289;SDS011;33197;52.524;13.444;2022-09-21T16:39:55;1.52;;;0.70;;
47289;SDS011;33197;52.524;13.444;2022-09-21T16:42:24;2.05;;;1.17;;
47289;SDS011;33197;52.524;13.444;2022-09-21T16:44:57;3.25;;;1.30;;
47289;SDS011;33197;52.524;13.444;2022-09-21T16:47:25;1.70;;;0.70;;
47289;SDS011;33197;52.524;13.444;2022-09-21T16:49:54;1.98;;;0.93;;
47289;SDS011;33197;52.524;13.444;2022-09-21T16:52:22;1.70;;;1.10;;
47289;SDS011;33197;52.524;13.444;2022-09-21T16:54:50;1.60;;;1.10;;
47289;SDS011;33197;52.524;13.444;2022-09-21T16:57:17;2.60;;;1.55;;
47289;SDS011;33197;52.524;13.444;2022-09-21T16:59:44;2.30;;;1.40;;
47289;SDS011;33197;52.524;13.444;2022-09-21T17:02:13;3.22;;;1.20;;
47289;SDS011;33197;52.524;13.444;2022-09-21T17:04:40;4.70;;;1.40;;
47289;SDS011;33197;52.524;13.444;2022-09-21T17:07:11;1.50;;;1.10;;
47289;SDS011;33197;52.524;13.444;2022-09-21T17:09:40;2.80;;;1.77;;
47289;SDS011;33197;52.524;13.444;2022-09-21T17:12:12;4.93;;;1.60;;
47289;SDS011;33197;52.524;13.444;2022-09-21T17:14:40;2.38;;;1.60;;
47289;SDS011;33197;52.524;13.444;2022-09-21T17:17:16;4.63;;;2.53;;
47289;SDS011;33197;52.524;13.444;2022-09-21T17:19:45;4.28;;;1.88;;
47289;SDS011;33197;52.524;13.444;2022-09-21T17:22:15;3.42;;;2.17;;
47289;SDS011;33197;52.524;13.444;2022-09-21T17:24:44;3.05;;;1.90;;
47289;SDS011;33197;52.524;13.444;2022-09-21T17:27:21;2.70;;;1.70;;
47289;SDS011;33197;52.524;13.444;2022-09-21T17:29:50;5.47;;;2.22;;
47289;SDS011;33197;52.524;13.444;2022-09-21T17:32:20;4.13;;;2.17;;
47289;SDS011;33197;52.524;13.444;2022-09-21T17:35:12;3.92;;;3.08;;
47289;SDS011;33197;52.524;13.444;2022-09-21T17:37:43;6.05;;;3.42;;
47289;SDS011;33197;52.524;13.444;2022-09-21T17:40:11;7.15;;;3.75;;
47289;SDS011;33197;52.524;13.444;2022-09-21T17:42:39;9.55;;;5.32;;
47289;SDS011;33197;52.524;13.444;2022-09-21T17:45:15;8.48;;;5.32;;
47289;SDS011;33197;52.524;13.444;2022-09-21T17:47:47;8.48;;;4.53;;
47289;SDS011;33197;52.524;13.444;2022-09-21T17:50:17;7.38;;;4.40;;
47289;SDS011;33197;52.524;13.444;2022-09-21T17:52:49;4.50;;;2.75;;
47289;SDS011;33197;52.524;13.444;2022-09-21T17:55:35;9.38;;;4.95;;
47289;SDS011;33197;52.524;13.444;2022-09-21T17:58:16;6.85;;;4.32;;
47289;SDS011;33197;52.524;13.444;2022-09-21T18:03:47;7.15;;;4.30;;
47289;SDS011;33197;52.524;13.444;2022-09-21T18:06:14;7.70;;;4.30;;
47289;SDS011;33197;52.524;13.444;2022-09-21T18:08:42;8.07;;;4.47;;
47289;SDS011;33197;52.524;13.444;2022-09-21T18:16:56;5.40;;;3.38;;
47289;SDS011;33197;52.524;13.444;2022-09-21T18:19:50;6.53;;;3.22;;
47289;SDS011;33197;52.524;13.444;2022-09-21T18:22:51;5.32;;;2.70;;
47289;SDS011;33197;52.524;13.444;2022-09-21T18:25:28;5.82;;;2.22;;
47289;SDS011;33197;52.524;13.444;2022-09-21T18:28:01;3.58;;;1.98;;
47289;SDS011;33197;52.524;13.444;2022-09-21T18:30:32;4.00;;;2.13;;
47289;SDS011;33197;52.524;13.444;2022-09-21T18:33:11;5.95;;;2.28;;
47289;SDS011;33197;52.524;13.444;2022-09-21T18:36:02;6.88;;;2.63;;
47289;SDS011;33197;52.524;13.444;2022-09-21T18:38:57;4.57;;;2.03;;
47289;SDS011;33197;52.524;13.444;2022-09-21T18:41:37;6.28;;;2.10;;
47289;SDS011;33197;52.524;13.444;2022-09-21T18:44:45;4.85;;;2.17;;
47289;SDS011;33197;52.524;13.444;2022-09-21T18:50:16;5.20;;;2.67;;
47289;SDS011;33197;52.524;13.444;2022-09-21T18:55:42;5.65;;;2.63;;
47289;SDS011;33197;52.524;13.444;2022-09-21T18:58:10;8.50;;;2.53;;
47289;SDS011;33197;52.524;13.444;2022-09-21T19:00:37;4.45;;;2.00;;
47289;SDS011;33197;52.524;13.444;2022-09-21T19:03:06;4.70;;;2.90;;
47289;SDS011;33197;52.524;13.444;2022-09-21T19:05:56;7.57;;;2.72;;
47289;SDS011;33197;52.524;13.444;2022-09-21T19:08:35;6.70;;;3.00;;
47289;SDS011;33197;52.524;13.444;2022-09-21T19:11:12;5.72;;;2.70;;